Rechercher aéroport 
image banner adimage banner adimage banner ad
image banner ad

44CA - W R Byron

Situé à Blythe, United States

ICAO - 44CA, IATA -

Données fournies par Airmate  

Information générale

Coordonnées: N33°59'23" W119°40'47"
Élévation : 420 feet MSL.
Variation magnétique : 12° East
Voir autres Aéroports à California

Données opérationnelles

Special qualification required
Heure actuelle UTC:
Heure actuelle locale:
Météo à : KOXR - Oxnard ( 49 km )
METAR: KOXR 251521Z 00000KT 5SM BR OVC005 17/16 A3000 RMK AO2 T01720156
TAF: KOXR 251158Z 2512/2612 VRB03KT 4SM BR OVC003 FM251600 27006KT 6SM BR OVC007 FM252100 27010KT P6SM SCT012 BKN120 FM260200 28006KT P6SM BKN007 BKN120
Voir NOTAMs / SUP AIP / TFR affectant cet aéroport [VIEW]
Fréquences de communication: [VIEW]

Pistes:

Identifiant RWYQFULongueur (ft)Largeur (ft)SurfaceLDA (ft)
09169760EARTH
27169760EARTH

Coordonnées de l'aéroport

Adresse: Blythe United States

Vue satellite de 44CA